KDDC/DDC METAR and TAF weather

Enter ICAO airport designator
Station Type Date Time Source
KDDC METAR 2020/07/15 05:27 UTC NOAA

KDDC 150527Z AUTO 17015G21KT 3SM +TSRA BR BKN010 BKN055 OVC100 19/18 A3001 RMK AO2 WSHFT 0510 LTG DSNT ALQDS TSE02B09 P0006 T01940183


Station Type Date Time Source
KDDC Decoded METAR 2020/07/15 05:27 UTC NOAA

DODGE CITY REGIONAL AIRPORT, KS, United States (KDDC) 37-46N 99-58W 789M
Jul 15, 2020 - 01:27 AM EDT / 2020.07.15 0527 UTC
Wind: from the S (170 degrees) at 17 MPH (15 KT) gusting to 24 MPH (21 KT):0
Visibility: 3 mile(s):0
Sky conditions: overcast
Weather: heavy rain with thunder; mist; Lightning observed
Precipitation last hour: 0.06 inches
Temperature: 66.9 F (19.4 C)
Dew Point: 64.9 F (18.3 C)
Relative Humidity: 93%
Pressure (altimeter): 30.01 in. Hg (1016 hPa)
ob: KDDC 150527Z AUTO 17015G21KT 3SM +TSRA BR BKN010 BKN055 OVC100 19/18 A3001 RMK AO2 WSHFT 0510 LTG DSNT ALQDS TSE02B09 P0006 T01940183
cycle: 5

Station Type Date Time Source
KDDC TAF 2020/07/15 05:22 UTC NOAA

TAF
AMD KDDC 150520Z 1505/1524 05012G20KT 5SM -TSRA BKN050CB
TEMPO 1506/1507 VRB30G50KT 1SM +TSRA BKN040CB
FM150700 31017KT P6SM VCTS BKN050CB
FM150800 32009KT P6SM BKN029
FM151200 35009KT P6SM SCT010

Example: see airport list